sensor_id;sensor_type;location;lat;lon;timestamp;temperature;humidity
64855;DHT22;51321;50.428;8.378;2023-08-31T00:01:00;12.40;99.90
64855;DHT22;51321;50.428;8.378;2023-08-31T00:03:40;12.40;99.90
64855;DHT22;51321;50.428;8.378;2023-08-31T00:06:21;12.40;99.90
64855;DHT22;51321;50.428;8.378;2023-08-31T00:09:02;12.60;99.90
64855;DHT22;51321;50.428;8.378;2023-08-31T00:11:44;12.40;99.90
64855;DHT22;51321;50.428;8.378;2023-08-31T00:14:25;12.40;99.90
64855;DHT22;51321;50.428;8.378;2023-08-31T00:17:09;12.30;99.90
64855;DHT22;51321;50.428;8.378;2023-08-31T00:19:50;12.20;99.90
64855;DHT22;51321;50.428;8.378;2023-08-31T00:22:31;12.20;99.90
64855;DHT22;51321;50.428;8.378;2023-08-31T00:25:13;12.20;99.90
64855;DHT22;51321;50.428;8.378;2023-08-31T00:27:57;12.00;99.90
64855;DHT22;51321;50.428;8.378;2023-08-31T00:30:43;11.90;99.90
64855;DHT22;51321;50.428;8.378;2023-08-31T00:33:27;11.90;99.90
64855;DHT22;51321;50.428;8.378;2023-08-31T00:36:08;12.00;99.90
64855;DHT22;51321;50.428;8.378;2023-08-31T00:38:49;12.00;99.90
64855;DHT22;51321;50.428;8.378;2023-08-31T00:41:34;12.00;99.90
64855;DHT22;51321;50.428;8.378;2023-08-31T00:44:17;12.20;99.90
64855;DHT22;51321;50.428;8.378;2023-08-31T00:46:57;12.30;99.90
64855;DHT22;51321;50.428;8.378;2023-08-31T00:49:40;12.20;99.90
64855;DHT22;51321;50.428;8.378;2023-08-31T00:52:20;12.10;99.90
64855;DHT22;51321;50.428;8.378;2023-08-31T00:55:01;12.20;99.90
64855;DHT22;51321;50.428;8.378;2023-08-31T00:57:44;12.20;99.90
64855;DHT22;51321;50.428;8.378;2023-08-31T01:00:24;12.10;99.90
64855;DHT22;51321;50.428;8.378;2023-08-31T01:03:13;12.10;99.90
64855;DHT22;51321;50.428;8.378;2023-08-31T01:05:55;12.10;99.90
64855;DHT22;51321;50.428;8.378;2023-08-31T01:08:40;12.40;99.90
64855;DHT22;51321;50.428;8.378;2023-08-31T01:11:26;12.40;99.90
64855;DHT22;51321;50.428;8.378;2023-08-31T01:14:11;12.50;99.90
64855;DHT22;51321;50.428;8.378;2023-08-31T01:16:53;12.40;99.90
64855;DHT22;51321;50.428;8.378;2023-08-31T01:19:40;12.10;99.90
64855;DHT22;51321;50.428;8.378;2023-08-31T01:22:29;12.00;99.90
64855;DHT22;51321;50.428;8.378;2023-08-31T01:25:12;11.90;99.90
64855;DHT22;51321;50.428;8.378;2023-08-31T01:27:52;12.00;99.90
64855;DHT22;51321;50.428;8.378;2023-08-31T01:30:33;12.10;99.90
64855;DHT22;51321;50.428;8.378;2023-08-31T01:33:13;12.20;99.90
64855;DHT22;51321;50.428;8.378;2023-08-31T01:35:56;12.00;99.90
64855;DHT22;51321;50.428;8.378;2023-08-31T01:38:38;11.90;99.90
64855;DHT22;51321;50.428;8.378;2023-08-31T01:41:22;11.80;99.90
64855;DHT22;51321;50.428;8.378;2023-08-31T01:44:04;11.80;99.90
64855;DHT22;51321;50.428;8.378;2023-08-31T01:46:52;11.80;99.90
64855;DHT22;51321;50.428;8.378;2023-08-31T01:49:37;11.80;99.90
64855;DHT22;51321;50.428;8.378;2023-08-31T01:52:19;11.70;99.90
64855;DHT22;51321;50.428;8.378;2023-08-31T01:55:00;11.70;99.90
64855;DHT22;51321;50.428;8.378;2023-08-31T01:57:43;11.90;99.90
64855;DHT22;51321;50.428;8.378;2023-08-31T02:00:31;11.80;99.90
64855;DHT22;51321;50.428;8.378;2023-08-31T02:03:13;11.80;99.90
64855;DHT22;51321;50.428;8.378;2023-08-31T02:05:54;11.90;99.90
64855;DHT22;51321;50.428;8.378;2023-08-31T02:08:35;11.70;99.90
64855;DHT22;51321;50.428;8.378;2023-08-31T02:11:15;11.80;99.90
64855;DHT22;51321;50.428;8.378;2023-08-31T02:13:57;11.70;99.90
64855;DHT22;51321;50.428;8.378;2023-08-31T02:16:37;11.50;99.90
64855;DHT22;51321;50.428;8.378;2023-08-31T02:19:18;11.50;99.90
64855;DHT22;51321;50.428;8.378;2023-08-31T02:21:58;11.40;99.90
64855;DHT22;51321;50.428;8.378;2023-08-31T02:24:38;11.40;99.90
64855;DHT22;51321;50.428;8.378;2023-08-31T02:27:18;11.40;99.90
64855;DHT22;51321;50.428;8.378;2023-08-31T02:30:03;11.40;99.90
64855;DHT22;51321;50.428;8.378;2023-08-31T02:32:44;11.60;99.90
64855;DHT22;51321;50.428;8.378;2023-08-31T02:35:27;11.50;99.90
64855;DHT22;51321;50.428;8.378;2023-08-31T02:38:07;11.80;99.90
64855;DHT22;51321;50.428;8.378;2023-08-31T02:40:48;12.00;99.90
64855;DHT22;51321;50.428;8.378;2023-08-31T02:43:28;11.90;99.90
64855;DHT22;51321;50.428;8.378;2023-08-31T02:46:10;11.70;99.90
64855;DHT22;51321;50.428;8.378;2023-08-31T02:48:51;11.40;99.90
64855;DHT22;51321;50.428;8.378;2023-08-31T02:51:31;11.30;99.90
64855;DHT22;51321;50.428;8.378;2023-08-31T02:54:12;11.00;99.90
64855;DHT22;51321;50.428;8.378;2023-08-31T02:56:52;11.00;99.90
64855;DHT22;51321;50.428;8.378;2023-08-31T02:59:33;11.00;99.90
64855;DHT22;51321;50.428;8.378;2023-08-31T03:02:16;11.20;99.90
64855;DHT22;51321;50.428;8.378;2023-08-31T03:04:56;11.30;99.90
64855;DHT22;51321;50.428;8.378;2023-08-31T03:07:37;11.50;99.90
64855;DHT22;51321;50.428;8.378;2023-08-31T03:10:20;11.70;99.90
64855;DHT22;51321;50.428;8.378;2023-08-31T03:13:01;11.80;99.90
64855;DHT22;51321;50.428;8.378;2023-08-31T03:15:42;11.80;99.90
64855;DHT22;51321;50.428;8.378;2023-08-31T03:18:24;11.70;99.90
64855;DHT22;51321;50.428;8.378;2023-08-31T03:21:05;11.50;99.90
64855;DHT22;51321;50.428;8.378;2023-08-31T03:23:46;11.30;99.90
64855;DHT22;51321;50.428;8.378;2023-08-31T03:26:26;11.20;99.90
64855;DHT22;51321;50.428;8.378;2023-08-31T03:29:06;11.20;99.90
64855;DHT22;51321;50.428;8.378;2023-08-31T03:31:47;11.20;99.90
64855;DHT22;51321;50.428;8.378;2023-08-31T03:34:30;11.40;99.90
64855;DHT22;51321;50.428;8.378;2023-08-31T03:37:11;11.60;99.90
64855;DHT22;51321;50.428;8.378;2023-08-31T03:39:52;11.70;99.90
64855;DHT22;51321;50.428;8.378;2023-08-31T03:42:32;11.60;99.90
64855;DHT22;51321;50.428;8.378;2023-08-31T03:45:13;11.50;99.90
64855;DHT22;51321;50.428;8.378;2023-08-31T03:47:53;11.40;99.90
64855;DHT22;51321;50.428;8.378;2023-08-31T03:50:35;11.50;99.90
64855;DHT22;51321;50.428;8.378;2023-08-31T03:53:18;11.60;99.90
64855;DHT22;51321;50.428;8.378;2023-08-31T03:55:58;11.60;99.90
64855;DHT22;51321;50.428;8.378;2023-08-31T03:58:39;11.60;99.90
64855;DHT22;51321;50.428;8.378;2023-08-31T04:01:20;11.50;99.90
64855;DHT22;51321;50.428;8.378;2023-08-31T04:04:02;11.50;99.90
64855;DHT22;51321;50.428;8.378;2023-08-31T04:06:44;11.60;99.90
64855;DHT22;51321;50.428;8.378;2023-08-31T04:09:25;11.70;99.90
64855;DHT22;51321;50.428;8.378;2023-08-31T04:12:06;11.60;99.90
64855;DHT22;51321;50.428;8.378;2023-08-31T04:14:46;11.60;99.90
64855;DHT22;51321;50.428;8.378;2023-08-31T04:17:28;11.60;99.90
64855;DHT22;51321;50.428;8.378;2023-08-31T04:20:09;11.70;99.90
64855;DHT22;51321;50.428;8.378;2023-08-31T04:22:51;11.60;99.90
64855;DHT22;51321;50.428;8.378;2023-08-31T04:25:31;11.50;99.90
64855;DHT22;51321;50.428;8.378;2023-08-31T04:28:12;11.40;99.90
64855;DHT22;51321;50.428;8.378;2023-08-31T04:30:52;11.40;99.90
64855;DHT22;51321;50.428;8.378;2023-08-31T04:33:33;11.40;99.90
64855;DHT22;51321;50.428;8.378;2023-08-31T04:36:14;11.40;99.90
64855;DHT22;51321;50.428;8.378;2023-08-31T04:38:55;11.40;99.90
64855;DHT22;51321;50.428;8.378;2023-08-31T04:41:36;11.20;99.90
64855;DHT22;51321;50.428;8.378;2023-08-31T04:44:16;11.30;99.90
64855;DHT22;51321;50.428;8.378;2023-08-31T04:46:57;11.40;99.90
64855;DHT22;51321;50.428;8.378;2023-08-31T04:49:37;11.30;99.90
64855;DHT22;51321;50.428;8.378;2023-08-31T04:52:18;11.20;99.90
64855;DHT22;51321;50.428;8.378;2023-08-31T04:55:00;11.10;99.90
64855;DHT22;51321;50.428;8.378;2023-08-31T04:57:40;11.00;99.90
64855;DHT22;51321;50.428;8.378;2023-08-31T05:00:20;10.90;99.90
64855;DHT22;51321;50.428;8.378;2023-08-31T05:03:01;10.90;99.90
64855;DHT22;51321;50.428;8.378;2023-08-31T05:05:41;10.80;99.90
64855;DHT22;51321;50.428;8.378;2023-08-31T05:08:23;10.90;99.90
64855;DHT22;51321;50.428;8.378;2023-08-31T05:11:05;11.00;99.90
64855;DHT22;51321;50.428;8.378;2023-08-31T05:13:45;11.10;99.90
64855;DHT22;51321;50.428;8.378;2023-08-31T05:16:25;11.20;99.90
64855;DHT22;51321;50.428;8.378;2023-08-31T05:19:05;11.20;99.90
64855;DHT22;51321;50.428;8.378;2023-08-31T05:21:46;11.30;99.90
64855;DHT22;51321;50.428;8.378;2023-08-31T05:24:27;11.40;99.90
64855;DHT22;51321;50.428;8.378;2023-08-31T05:27:08;11.30;99.90
64855;DHT22;51321;50.428;8.378;2023-08-31T05:29:49;11.40;99.90
64855;DHT22;51321;50.428;8.378;2023-08-31T05:32:29;11.50;99.90
64855;DHT22;51321;50.428;8.378;2023-08-31T05:35:10;11.60;99.90
64855;DHT22;51321;50.428;8.378;2023-08-31T05:37:50;11.60;99.90
64855;DHT22;51321;50.428;8.378;2023-08-31T05:40:30;11.60;99.90
64855;DHT22;51321;50.428;8.378;2023-08-31T05:43:12;11.70;99.90
64855;DHT22;51321;50.428;8.378;2023-08-31T05:45:52;11.80;99.90
64855;DHT22;51321;50.428;8.378;2023-08-31T05:48:32;11.80;99.90
64855;DHT22;51321;50.428;8.378;2023-08-31T05:51:13;11.90;99.90
64855;DHT22;51321;50.428;8.378;2023-08-31T05:53:54;12.10;99.90
64855;DHT22;51321;50.428;8.378;2023-08-31T05:56:34;12.30;99.90
64855;DHT22;51321;50.428;8.378;2023-08-31T05:59:16;12.50;99.90
64855;DHT22;51321;50.428;8.378;2023-08-31T06:01:56;12.60;99.90
64855;DHT22;51321;50.428;8.378;2023-08-31T06:04:36;12.70;99.90
64855;DHT22;51321;50.428;8.378;2023-08-31T06:07:17;12.80;99.90
64855;DHT22;51321;50.428;8.378;2023-08-31T06:09:58;13.00;99.90
64855;DHT22;51321;50.428;8.378;2023-08-31T06:12:38;13.10;99.90
64855;DHT22;51321;50.428;8.378;2023-08-31T06:15:20;13.20;99.90
64855;DHT22;51321;50.428;8.378;2023-08-31T06:18:00;13.30;99.90
64855;DHT22;51321;50.428;8.378;2023-08-31T06:20:42;13.50;99.90
64855;DHT22;51321;50.428;8.378;2023-08-31T06:23:22;13.50;99.90
64855;DHT22;51321;50.428;8.378;2023-08-31T06:26:02;13.50;99.90
64855;DHT22;51321;50.428;8.378;2023-08-31T06:28:43;13.60;99.90
64855;DHT22;51321;50.428;8.378;2023-08-31T06:31:25;13.60;99.90
64855;DHT22;51321;50.428;8.378;2023-08-31T06:34:06;13.80;99.90
64855;DHT22;51321;50.428;8.378;2023-08-31T06:36:46;13.80;99.90
64855;DHT22;51321;50.428;8.378;2023-08-31T06:39:26;13.80;99.90
64855;DHT22;51321;50.428;8.378;2023-08-31T06:42:07;13.70;99.90
64855;DHT22;51321;50.428;8.378;2023-08-31T06:44:51;13.70;99.90
64855;DHT22;51321;50.428;8.378;2023-08-31T06:47:32;13.70;99.90
64855;DHT22;51321;50.428;8.378;2023-08-31T06:50:13;13.80;99.90
64855;DHT22;51321;50.428;8.378;2023-08-31T06:52:53;13.80;99.90
64855;DHT22;51321;50.428;8.378;2023-08-31T06:55:34;13.80;99.90
64855;DHT22;51321;50.428;8.378;2023-08-31T06:58:14;13.80;99.90
64855;DHT22;51321;50.428;8.378;2023-08-31T07:00:55;13.90;99.90
64855;DHT22;51321;50.428;8.378;2023-08-31T07:03:37;14.00;99.90
64855;DHT22;51321;50.428;8.378;2023-08-31T07:06:17;14.20;99.90
64855;DHT22;51321;50.428;8.378;2023-08-31T07:08:57;14.20;99.90
64855;DHT22;51321;50.428;8.378;2023-08-31T07:11:38;14.20;99.90
64855;DHT22;51321;50.428;8.378;2023-08-31T07:14:19;14.20;99.90
64855;DHT22;51321;50.428;8.378;2023-08-31T07:16:59;14.30;99.90
64855;DHT22;51321;50.428;8.378;2023-08-31T07:19:41;14.40;99.90
64855;DHT22;51321;50.428;8.378;2023-08-31T07:22:22;14.30;99.90
64855;DHT22;51321;50.428;8.378;2023-08-31T07:25:02;14.50;99.90
64855;DHT22;51321;50.428;8.378;2023-08-31T07:27:43;14.50;99.90
64855;DHT22;51321;50.428;8.378;2023-08-31T07:30:23;14.60;99.90
64855;DHT22;51321;50.428;8.378;2023-08-31T07:33:03;14.60;99.90
64855;DHT22;51321;50.428;8.378;2023-08-31T07:35:45;14.60;99.90
64855;DHT22;51321;50.428;8.378;2023-08-31T07:38:26;14.70;99.90
64855;DHT22;51321;50.428;8.378;2023-08-31T07:41:06;14.50;99.90
64855;DHT22;51321;50.428;8.378;2023-08-31T07:43:47;14.60;99.90
64855;DHT22;51321;50.428;8.378;2023-08-31T07:46:28;14.90;99.90
64855;DHT22;51321;50.428;8.378;2023-08-31T07:49:08;15.20;99.90
64855;DHT22;51321;50.428;8.378;2023-08-31T07:51:50;15.40;99.90
64855;DHT22;51321;50.428;8.378;2023-08-31T07:54:30;15.40;99.90
64855;DHT22;51321;50.428;8.378;2023-08-31T07:57:11;15.40;99.90
64855;DHT22;51321;50.428;8.378;2023-08-31T07:59:52;15.30;99.90
64855;DHT22;51321;50.428;8.378;2023-08-31T08:02:32;15.20;99.90
64855;DHT22;51321;50.428;8.378;2023-08-31T08:05:12;15.20;99.90
64855;DHT22;51321;50.428;8.378;2023-08-31T08:07:54;15.20;99.90
64855;DHT22;51321;50.428;8.378;2023-08-31T08:10:35;15.20;99.90
64855;DHT22;51321;50.428;8.378;2023-08-31T08:13:15;15.20;99.90
64855;DHT22;51321;50.428;8.378;2023-08-31T08:15:56;15.20;99.90
64855;DHT22;51321;50.428;8.378;2023-08-31T08:18:36;15.20;99.90
64855;DHT22;51321;50.428;8.378;2023-08-31T08:21:17;15.30;99.90
64855;DHT22;51321;50.428;8.378;2023-08-31T08:23:59;15.40;99.90
64855;DHT22;51321;50.428;8.378;2023-08-31T08:26:39;15.50;99.90
64855;DHT22;51321;50.428;8.378;2023-08-31T08:29:20;15.60;99.90
64855;DHT22;51321;50.428;8.378;2023-08-31T08:32:00;15.70;99.90
64855;DHT22;51321;50.428;8.378;2023-08-31T08:34:42;15.70;99.90
64855;DHT22;51321;50.428;8.378;2023-08-31T08:37:23;15.80;99.90
64855;DHT22;51321;50.428;8.378;2023-08-31T08:40:06;15.90;99.90
64855;DHT22;51321;50.428;8.378;2023-08-31T08:42:46;16.10;99.90
64855;DHT22;51321;50.428;8.378;2023-08-31T08:45:29;16.20;99.90
64855;DHT22;51321;50.428;8.378;2023-08-31T08:48:11;16.40;99.90
64855;DHT22;51321;50.428;8.378;2023-08-31T08:50:51;16.50;99.90
64855;DHT22;51321;50.428;8.378;2023-08-31T08:53:33;16.60;99.90
64855;DHT22;51321;50.428;8.378;2023-08-31T08:56:18;16.60;99.90
64855;DHT22;51321;50.428;8.378;2023-08-31T08:58:58;16.60;99.90
64855;DHT22;51321;50.428;8.378;2023-08-31T09:01:39;16.60;99.90
64855;DHT22;51321;50.428;8.378;2023-08-31T09:04:20;16.60;99.90
64855;DHT22;51321;50.428;8.378;2023-08-31T09:07:00;16.60;99.90
64855;DHT22;51321;50.428;8.378;2023-08-31T09:09:48;16.80;99.90
64855;DHT22;51321;50.428;8.378;2023-08-31T09:12:30;16.90;99.90
64855;DHT22;51321;50.428;8.378;2023-08-31T09:15:11;16.90;99.90
64855;DHT22;51321;50.428;8.378;2023-08-31T09:17:51;17.10;99.90
64855;DHT22;51321;50.428;8.378;2023-08-31T09:20:31;17.20;99.90
64855;DHT22;51321;50.428;8.378;2023-08-31T09:23:12;17.60;99.90
64855;DHT22;51321;50.428;8.378;2023-08-31T09:25:53;17.90;99.90
64855;DHT22;51321;50.428;8.378;2023-08-31T09:28:35;17.90;99.90
64855;DHT22;51321;50.428;8.378;2023-08-31T09:31:20;17.90;99.90
64855;DHT22;51321;50.428;8.378;2023-08-31T09:34:09;18.10;99.90
64855;DHT22;51321;50.428;8.378;2023-08-31T09:36:49;18.40;99.90
64855;DHT22;51321;50.428;8.378;2023-08-31T09:39:30;18.40;99.90
64855;DHT22;51321;50.428;8.378;2023-08-31T09:42:15;18.40;99.90
64855;DHT22;51321;50.428;8.378;2023-08-31T09:44:57;18.60;99.90
64855;DHT22;51321;50.428;8.378;2023-08-31T09:47:37;18.90;99.90
64855;DHT22;51321;50.428;8.378;2023-08-31T09:50:17;19.10;99.90
64855;DHT22;51321;50.428;8.378;2023-08-31T09:53:00;19.40;99.90
64855;DHT22;51321;50.428;8.378;2023-08-31T09:55:41;19.50;99.90
64855;DHT22;51321;50.428;8.378;2023-08-31T09:58:21;19.60;99.90
64855;DHT22;51321;50.428;8.378;2023-08-31T10:01:03;19.30;99.90
64855;DHT22;51321;50.428;8.378;2023-08-31T10:03:45;19.20;99.90
64855;DHT22;51321;50.428;8.378;2023-08-31T10:06:26;19.40;99.90
64855;DHT22;51321;50.428;8.378;2023-08-31T10:09:07;19.60;99.90
64855;DHT22;51321;50.428;8.378;2023-08-31T10:11:49;19.50;99.90
64855;DHT22;51321;50.428;8.378;2023-08-31T10:14:29;19.60;99.90
64855;DHT22;51321;50.428;8.378;2023-08-31T10:17:11;19.90;99.90
64855;DHT22;51321;50.428;8.378;2023-08-31T10:19:52;19.80;99.90
64855;DHT22;51321;50.428;8.378;2023-08-31T10:22:33;19.80;99.90
64855;DHT22;51321;50.428;8.378;2023-08-31T10:25:14;19.90;99.90
64855;DHT22;51321;50.428;8.378;2023-08-31T10:27:54;19.90;99.90
64855;DHT22;51321;50.428;8.378;2023-08-31T10:30:37;19.40;99.90
64855;DHT22;51321;50.428;8.378;2023-08-31T10:33:22;19.20;99.90
64855;DHT22;51321;50.428;8.378;2023-08-31T10:36:03;18.80;99.90
64855;DHT22;51321;50.428;8.378;2023-08-31T10:38:44;18.60;99.90
64855;DHT22;51321;50.428;8.378;2023-08-31T10:41:26;18.40;99.90
64855;DHT22;51321;50.428;8.378;2023-08-31T10:44:19;18.50;99.90
64855;DHT22;51321;50.428;8.378;2023-08-31T10:47:00;19.10;99.90
64855;DHT22;51321;50.428;8.378;2023-08-31T10:49:50;19.60;99.90
64855;DHT22;51321;50.428;8.378;2023-08-31T10:52:32;19.60;99.90
64855;DHT22;51321;50.428;8.378;2023-08-31T10:55:23;20.10;99.90
64855;DHT22;51321;50.428;8.378;2023-08-31T10:58:09;20.30;99.90
64855;DHT22;51321;50.428;8.378;2023-08-31T11:00:50;20.40;99.90
64855;DHT22;51321;50.428;8.378;2023-08-31T11:03:31;20.70;99.90
64855;DHT22;51321;50.428;8.378;2023-08-31T11:06:13;21.20;99.90
64855;DHT22;51321;50.428;8.378;2023-08-31T11:08:53;21.30;97.80
64855;DHT22;51321;50.428;8.378;2023-08-31T11:11:37;21.20;97.30
64855;DHT22;51321;50.428;8.378;2023-08-31T11:14:18;21.10;96.70
64855;DHT22;51321;50.428;8.378;2023-08-31T11:16:58;21.20;97.40
64855;DHT22;51321;50.428;8.378;2023-08-31T11:19:39;21.20;97.60
64855;DHT22;51321;50.428;8.378;2023-08-31T11:22:24;21.30;97.60
64855;DHT22;51321;50.428;8.378;2023-08-31T11:25:04;21.40;96.60
64855;DHT22;51321;50.428;8.378;2023-08-31T11:27:52;21.30;96.30
64855;DHT22;51321;50.428;8.378;2023-08-31T11:30:33;21.20;97.60
64855;DHT22;51321;50.428;8.378;2023-08-31T11:33:13;21.40;97.90
64855;DHT22;51321;50.428;8.378;2023-08-31T11:35:54;21.60;97.20
64855;DHT22;51321;50.428;8.378;2023-08-31T11:38:36;21.60;96.50
64855;DHT22;51321;50.428;8.378;2023-08-31T11:41:16;21.70;95.90
64855;DHT22;51321;50.428;8.378;2023-08-31T11:43:57;21.40;95.90
64855;DHT22;51321;50.428;8.378;2023-08-31T11:46:37;20.90;96.00
64855;DHT22;51321;50.428;8.378;2023-08-31T11:49:18;20.70;96.70
64855;DHT22;51321;50.428;8.378;2023-08-31T11:51:59;20.80;97.50
64855;DHT22;51321;50.428;8.378;2023-08-31T11:54:41;20.60;97.40
64855;DHT22;51321;50.428;8.378;2023-08-31T11:57:25;20.30;97.90
64855;DHT22;51321;50.428;8.378;2023-08-31T12:00:06;20.00;98.30
64855;DHT22;51321;50.428;8.378;2023-08-31T12:02:56;20.30;98.40
64855;DHT22;51321;50.428;8.378;2023-08-31T12:05:46;20.60;97.90
64855;DHT22;51321;50.428;8.378;2023-08-31T12:08:27;20.50;98.30
64855;DHT22;51321;50.428;8.378;2023-08-31T12:11:09;20.30;97.70
64855;DHT22;51321;50.428;8.378;2023-08-31T12:13:50;20.50;97.80
64855;DHT22;51321;50.428;8.378;2023-08-31T12:16:33;20.90;97.80
64855;DHT22;51321;50.428;8.378;2023-08-31T12:19:14;20.80;96.60
64855;DHT22;51321;50.428;8.378;2023-08-31T12:21:54;20.80;97.70
64855;DHT22;51321;50.428;8.378;2023-08-31T12:24:38;21.00;97.40
64855;DHT22;51321;50.428;8.378;2023-08-31T12:27:20;21.10;97.30
64855;DHT22;51321;50.428;8.378;2023-08-31T12:30:01;21.30;97.10
64855;DHT22;51321;50.428;8.378;2023-08-31T12:32:42;21.30;96.20
64855;DHT22;51321;50.428;8.378;2023-08-31T12:35:22;21.20;95.20
64855;DHT22;51321;50.428;8.378;2023-08-31T12:38:03;21.00;95.10
64855;DHT22;51321;50.428;8.378;2023-08-31T12:40:44;20.60;96.30
64855;DHT22;51321;50.428;8.378;2023-08-31T12:43:25;20.60;96.50
64855;DHT22;51321;50.428;8.378;2023-08-31T12:46:06;21.00;95.80
64855;DHT22;51321;50.428;8.378;2023-08-31T12:48:48;21.70;96.00
64855;DHT22;51321;50.428;8.378;2023-08-31T12:51:30;22.20;95.10
64855;DHT22;51321;50.428;8.378;2023-08-31T12:54:11;22.20;94.80
64855;DHT22;51321;50.428;8.378;2023-08-31T12:56:51;22.00;94.50
64855;DHT22;51321;50.428;8.378;2023-08-31T12:59:33;21.70;94.70
64855;DHT22;51321;50.428;8.378;2023-08-31T13:02:13;21.30;94.70
64855;DHT22;51321;50.428;8.378;2023-08-31T13:04:53;21.20;95.40
64855;DHT22;51321;50.428;8.378;2023-08-31T13:07:34;21.10;95.80
64855;DHT22;51321;50.428;8.378;2023-08-31T13:10:14;21.50;96.70
64855;DHT22;51321;50.428;8.378;2023-08-31T13:12:55;21.80;95.60
64855;DHT22;51321;50.428;8.378;2023-08-31T13:15:37;22.10;95.40
64855;DHT22;51321;50.428;8.378;2023-08-31T13:18:17;22.30;93.90
64855;DHT22;51321;50.428;8.378;2023-08-31T13:20:57;22.50;93.50
64855;DHT22;51321;50.428;8.378;2023-08-31T13:23:37;22.50;92.60
64855;DHT22;51321;50.428;8.378;2023-08-31T13:26:18;22.40;92.70
64855;DHT22;51321;50.428;8.378;2023-08-31T13:28:59;22.30;92.90
64855;DHT22;51321;50.428;8.378;2023-08-31T13:31:41;22.20;93.50
64855;DHT22;51321;50.428;8.378;2023-08-31T13:34:21;21.90;93.50
64855;DHT22;51321;50.428;8.378;2023-08-31T13:37:02;21.80;93.20
64855;DHT22;51321;50.428;8.378;2023-08-31T13:39:43;21.70;93.90
64855;DHT22;51321;50.428;8.378;2023-08-31T13:42:23;22.00;93.90
64855;DHT22;51321;50.428;8.378;2023-08-31T13:45:05;22.00;92.00
64855;DHT22;51321;50.428;8.378;2023-08-31T13:47:46;22.10;92.20
64855;DHT22;51321;50.428;8.378;2023-08-31T13:50:28;22.00;92.40
64855;DHT22;51321;50.428;8.378;2023-08-31T13:53:08;22.20;91.40
64855;DHT22;51321;50.428;8.378;2023-08-31T13:55:49;22.30;91.80
64855;DHT22;51321;50.428;8.378;2023-08-31T13:58:29;22.20;92.50
64855;DHT22;51321;50.428;8.378;2023-08-31T14:01:10;21.90;91.60
64855;DHT22;51321;50.428;8.378;2023-08-31T14:03:53;21.70;92.20
64855;DHT22;51321;50.428;8.378;2023-08-31T14:06:34;21.70;93.20
64855;DHT22;51321;50.428;8.378;2023-08-31T14:09:15;21.80;92.60
64855;DHT22;51321;50.428;8.378;2023-08-31T14:11:57;21.70;92.50
64855;DHT22;51321;50.428;8.378;2023-08-31T14:14:38;21.60;91.40
64855;DHT22;51321;50.428;8.378;2023-08-31T14:17:19;21.60;92.10
64855;DHT22;51321;50.428;8.378;2023-08-31T14:20:01;21.60;91.60
64855;DHT22;51321;50.428;8.378;2023-08-31T14:22:44;21.30;91.80
64855;DHT22;51321;50.428;8.378;2023-08-31T14:25:25;21.00;92.50
64855;DHT22;51321;50.428;8.378;2023-08-31T14:28:05;20.60;92.90
64855;DHT22;51321;50.428;8.378;2023-08-31T14:30:46;20.40;92.50
64855;DHT22;51321;50.428;8.378;2023-08-31T14:33:26;20.60;93.20
64855;DHT22;51321;50.428;8.378;2023-08-31T14:36:08;20.90;93.50
64855;DHT22;51321;50.428;8.378;2023-08-31T14:38:49;21.10;93.10
64855;DHT22;51321;50.428;8.378;2023-08-31T14:41:29;21.20;92.20
64855;DHT22;51321;50.428;8.378;2023-08-31T14:44:10;21.20;93.00
64855;DHT22;51321;50.428;8.378;2023-08-31T14:46:50;21.20;92.70
64855;DHT22;51321;50.428;8.378;2023-08-31T14:49:30;21.10;91.70
64855;DHT22;51321;50.428;8.378;2023-08-31T14:52:12;20.90;93.50
64855;DHT22;51321;50.428;8.378;2023-08-31T14:54:53;20.80;92.90
64855;DHT22;51321;50.428;8.378;2023-08-31T14:57:33;20.60;92.40
64855;DHT22;51321;50.428;8.378;2023-08-31T15:00:13;20.40;92.40
64855;DHT22;51321;50.428;8.378;2023-08-31T15:02:54;20.40;93.40
64855;DHT22;51321;50.428;8.378;2023-08-31T15:05:35;20.40;93.60
64855;DHT22;51321;50.428;8.378;2023-08-31T15:08:16;20.50;94.30
64855;DHT22;51321;50.428;8.378;2023-08-31T15:10:57;20.80;93.00
64855;DHT22;51321;50.428;8.378;2023-08-31T15:13:37;21.10;92.70
64855;DHT22;51321;50.428;8.378;2023-08-31T15:16:18;20.90;93.30
64855;DHT22;51321;50.428;8.378;2023-08-31T15:18:58;20.60;92.70
64855;DHT22;51321;50.428;8.378;2023-08-31T15:21:38;20.40;93.70
64855;DHT22;51321;50.428;8.378;2023-08-31T15:24:21;20.10;93.80
64855;DHT22;51321;50.428;8.378;2023-08-31T15:27:01;19.80;94.10
64855;DHT22;51321;50.428;8.378;2023-08-31T15:29:42;19.70;94.00
64855;DHT22;51321;50.428;8.378;2023-08-31T15:32:23;19.60;95.60
64855;DHT22;51321;50.428;8.378;2023-08-31T15:35:04;19.60;94.80
64855;DHT22;51321;50.428;8.378;2023-08-31T15:37:45;19.70;95.00
64855;DHT22;51321;50.428;8.378;2023-08-31T15:40:29;19.90;95.90
64855;DHT22;51321;50.428;8.378;2023-08-31T15:43:09;20.10;94.20
64855;DHT22;51321;50.428;8.378;2023-08-31T15:45:49;20.00;94.00
64855;DHT22;51321;50.428;8.378;2023-08-31T15:48:30;19.90;94.20
64855;DHT22;51321;50.428;8.378;2023-08-31T15:51:11;19.80;94.00
64855;DHT22;51321;50.428;8.378;2023-08-31T15:53:51;19.70;94.50
64855;DHT22;51321;50.428;8.378;2023-08-31T15:56:34;19.70;94.30
64855;DHT22;51321;50.428;8.378;2023-08-31T15:59:14;19.60;95.00
64855;DHT22;51321;50.428;8.378;2023-08-31T16:01:54;19.50;94.00
64855;DHT22;51321;50.428;8.378;2023-08-31T16:04:35;19.50;94.20
64855;DHT22;51321;50.428;8.378;2023-08-31T16:07:16;19.50;94.80
64855;DHT22;51321;50.428;8.378;2023-08-31T16:09:56;19.50;93.60
64855;DHT22;51321;50.428;8.378;2023-08-31T16:12:38;19.60;94.00
64855;DHT22;51321;50.428;8.378;2023-08-31T16:15:19;19.40;94.20
64855;DHT22;51321;50.428;8.378;2023-08-31T16:18:02;19.30;95.00
64855;DHT22;51321;50.428;8.378;2023-08-31T16:20:42;19.30;95.10
64855;DHT22;51321;50.428;8.378;2023-08-31T16:23:23;19.40;95.40
64855;DHT22;51321;50.428;8.378;2023-08-31T16:26:03;19.50;95.00
64855;DHT22;51321;50.428;8.378;2023-08-31T16:28:45;19.50;94.60
64855;DHT22;51321;50.428;8.378;2023-08-31T16:31:25;19.60;95.30
64855;DHT22;51321;50.428;8.378;2023-08-31T16:34:06;19.60;94.70
64855;DHT22;51321;50.428;8.378;2023-08-31T16:36:46;19.60;95.00
64855;DHT22;51321;50.428;8.378;2023-08-31T16:39:28;19.50;95.20
64855;DHT22;51321;50.428;8.378;2023-08-31T16:42:09;19.50;95.30
64855;DHT22;51321;50.428;8.378;2023-08-31T16:44:52;19.40;94.50
64855;DHT22;51321;50.428;8.378;2023-08-31T16:47:32;19.30;95.50
64855;DHT22;51321;50.428;8.378;2023-08-31T16:50:12;19.30;95.90
64855;DHT22;51321;50.428;8.378;2023-08-31T16:53:08;19.20;94.10
64855;DHT22;51321;50.428;8.378;2023-08-31T16:55:48;19.10;95.00
64855;DHT22;51321;50.428;8.378;2023-08-31T16:58:29;19.10;94.90